sensor_id;sensor_type;location;lat;lon;timestamp;P1;durP1;ratioP1;P2;durP2;ratioP2
18267;SDS011;9260;49.998;19.880;2022-07-29T00:03:07;254.77;;;90.83;;
18267;SDS011;9260;49.998;19.880;2022-07-29T00:13:12;252.00;;;90.53;;
18267;SDS011;9260;49.998;19.880;2022-07-29T00:23:16;255.60;;;90.67;;
18267;SDS011;9260;49.998;19.880;2022-07-29T00:33:21;256.83;;;90.90;;
18267;SDS011;9260;49.998;19.880;2022-07-29T00:43:24;250.83;;;90.77;;
18267;SDS011;9260;49.998;19.880;2022-07-29T00:53:30;250.47;;;89.47;;
18267;SDS011;9260;49.998;19.880;2022-07-29T01:03:34;251.70;;;90.63;;
18267;SDS011;9260;49.998;19.880;2022-07-29T01:13:39;254.97;;;92.27;;
18267;SDS011;9260;49.998;19.880;2022-07-29T01:23:48;254.13;;;91.53;;
18267;SDS011;9260;49.998;19.880;2022-07-29T01:34:07;253.53;;;91.17;;
18267;SDS011;9260;49.998;19.880;2022-07-29T01:44:15;250.37;;;88.63;;
18267;SDS011;9260;49.998;19.880;2022-07-29T01:54:24;253.07;;;89.37;;
18267;SDS011;9260;49.998;19.880;2022-07-29T02:04:31;252.80;;;86.37;;
18267;SDS011;9260;49.998;19.880;2022-07-29T02:14:40;246.27;;;87.03;;
18267;SDS011;9260;49.998;19.880;2022-07-29T02:24:46;252.73;;;87.07;;
18267;SDS011;9260;49.998;19.880;2022-07-29T02:34:53;249.83;;;88.73;;
18267;SDS011;9260;49.998;19.880;2022-07-29T02:44:59;260.97;;;89.97;;
18267;SDS011;9260;49.998;19.880;2022-07-29T02:55:06;252.73;;;88.37;;
18267;SDS011;9260;49.998;19.880;2022-07-29T03:05:15;248.20;;;86.07;;
18267;SDS011;9260;49.998;19.880;2022-07-29T03:15:23;250.43;;;86.50;;
18267;SDS011;9260;49.998;19.880;2022-07-29T03:25:27;252.43;;;87.60;;
18267;SDS011;9260;49.998;19.880;2022-07-29T03:35:32;245.03;;;84.67;;
18267;SDS011;9260;49.998;19.880;2022-07-29T03:45:36;254.03;;;86.70;;
18267;SDS011;9260;49.998;19.880;2022-07-29T03:55:43;248.43;;;85.23;;
18267;SDS011;9260;49.998;19.880;2022-07-29T04:05:57;249.03;;;85.47;;
18267;SDS011;9260;49.998;19.880;2022-07-29T04:16:03;244.57;;;84.30;;
18267;SDS011;9260;49.998;19.880;2022-07-29T04:26:07;247.17;;;83.93;;
18267;SDS011;9260;49.998;19.880;2022-07-29T04:36:13;247.03;;;85.87;;
18267;SDS011;9260;49.998;19.880;2022-07-29T04:46:30;252.57;;;88.33;;
18267;SDS011;9260;49.998;19.880;2022-07-29T04:56:35;248.63;;;86.90;;
18267;SDS011;9260;49.998;19.880;2022-07-29T05:06:39;256.00;;;87.80;;
18267;SDS011;9260;49.998;19.880;2022-07-29T05:16:44;251.73;;;87.37;;
18267;SDS011;9260;49.998;19.880;2022-07-29T05:26:47;253.57;;;89.57;;
18267;SDS011;9260;49.998;19.880;2022-07-29T05:36:52;257.43;;;94.63;;
18267;SDS011;9260;49.998;19.880;2022-07-29T05:46:56;250.93;;;99.80;;
18267;SDS011;9260;49.998;19.880;2022-07-29T05:57:02;251.47;;;100.43;;
18267;SDS011;9260;49.998;19.880;2022-07-29T06:07:06;253.43;;;96.60;;
18267;SDS011;9260;49.998;19.880;2022-07-29T06:17:11;255.50;;;99.23;;
18267;SDS011;9260;49.998;19.880;2022-07-29T06:27:15;261.67;;;101.27;;
18267;SDS011;9260;49.998;19.880;2022-07-29T06:37:20;256.07;;;98.73;;
18267;SDS011;9260;49.998;19.880;2022-07-29T06:47:25;258.23;;;104.53;;
18267;SDS011;9260;49.998;19.880;2022-07-29T06:57:30;242.73;;;97.30;;
18267;SDS011;9260;49.998;19.880;2022-07-29T07:07:34;245.20;;;100.87;;
18267;SDS011;9260;49.998;19.880;2022-07-29T07:17:39;251.67;;;107.03;;
18267;SDS011;9260;49.998;19.880;2022-07-29T07:27:43;242.30;;;107.40;;
18267;SDS011;9260;49.998;19.880;2022-07-29T07:37:48;242.48;;;107.03;;
18267;SDS011;9260;49.998;19.880;2022-07-29T07:47:52;241.75;;;115.38;;
18267;SDS011;9260;49.998;19.880;2022-07-29T07:57:57;248.43;;;137.65;;
18267;SDS011;9260;49.998;19.880;2022-07-29T08:08:01;234.32;;;117.75;;
18267;SDS011;9260;49.998;19.880;2022-07-29T08:18:06;235.07;;;126.13;;
18267;SDS011;9260;49.998;19.880;2022-07-29T08:28:10;244.77;;;130.15;;
18267;SDS011;9260;49.998;19.880;2022-07-29T08:38:17;243.73;;;137.48;;
18267;SDS011;9260;49.998;19.880;2022-07-29T08:48:22;245.60;;;149.77;;
18267;SDS011;9260;49.998;19.880;2022-07-29T08:58:29;235.70;;;149.25;;
18267;SDS011;9260;49.998;19.880;2022-07-29T09:08:37;249.07;;;157.30;;
18267;SDS011;9260;49.998;19.880;2022-07-29T09:18:43;256.73;;;207.82;;
18267;SDS011;9260;49.998;19.880;2022-07-29T09:28:48;252.70;;;210.02;;
18267;SDS011;9260;49.998;19.880;2022-07-29T09:38:58;230.65;;;165.70;;
18267;SDS011;9260;49.998;19.880;2022-07-29T09:49:05;262.58;;;234.30;;
18267;SDS011;9260;49.998;19.880;2022-07-29T09:59:11;268.73;;;240.48;;
18267;SDS011;9260;49.998;19.880;2022-07-29T10:09:14;220.13;;;171.80;;
18267;SDS011;9260;49.998;19.880;2022-07-29T10:19:23;224.95;;;189.68;;
18267;SDS011;9260;49.998;19.880;2022-07-29T10:29:27;220.50;;;195.75;;
18267;SDS011;9260;49.998;19.880;2022-07-29T10:39:36;215.88;;;189.63;;
18267;SDS011;9260;49.998;19.880;2022-07-29T10:49:55;212.57;;;189.48;;
18267;SDS011;9260;49.998;19.880;2022-07-29T11:10:33;204.80;;;177.43;;
18267;SDS011;9260;49.998;19.880;2022-07-29T11:20:41;207.77;;;174.32;;
18267;SDS011;9260;49.998;19.880;2022-07-29T11:30:48;221.45;;;181.63;;
18267;SDS011;9260;49.998;19.880;2022-07-29T11:51:27;205.82;;;180.52;;
18267;SDS011;9260;49.998;19.880;2022-07-29T12:01:35;217.43;;;193.73;;
18267;SDS011;9260;49.998;19.880;2022-07-29T12:11:38;215.50;;;192.45;;
18267;SDS011;9260;49.998;19.880;2022-07-29T12:21:46;216.25;;;193.18;;
18267;SDS011;9260;49.998;19.880;2022-07-29T12:31:57;214.25;;;191.30;;
18267;SDS011;9260;49.998;19.880;2022-07-29T12:42:11;210.55;;;188.35;;
18267;SDS011;9260;49.998;19.880;2022-07-29T12:52:25;216.70;;;187.52;;
18267;SDS011;9260;49.998;19.880;2022-07-29T13:02:31;225.27;;;196.65;;
18267;SDS011;9260;49.998;19.880;2022-07-29T13:12:37;220.73;;;168.57;;
18267;SDS011;9260;49.998;19.880;2022-07-29T13:22:47;224.85;;;156.85;;
18267;SDS011;9260;49.998;19.880;2022-07-29T13:32:51;229.50;;;155.15;;
18267;SDS011;9260;49.998;19.880;2022-07-29T13:42:57;236.63;;;151.70;;
18267;SDS011;9260;49.998;19.880;2022-07-29T13:53:01;231.77;;;146.02;;
18267;SDS011;9260;49.998;19.880;2022-07-29T14:03:06;233.02;;;142.75;;
18267;SDS011;9260;49.998;19.880;2022-07-29T14:13:11;237.15;;;142.25;;
18267;SDS011;9260;49.998;19.880;2022-07-29T14:23:28;231.60;;;138.90;;
18267;SDS011;9260;49.998;19.880;2022-07-29T14:33:32;230.65;;;136.27;;
18267;SDS011;9260;49.998;19.880;2022-07-29T14:43:37;286.10;;;140.82;;
18267;SDS011;9260;49.998;19.880;2022-07-29T14:53:40;241.05;;;133.40;;
18267;SDS011;9260;49.998;19.880;2022-07-29T15:03:45;250.32;;;130.57;;
18267;SDS011;9260;49.998;19.880;2022-07-29T15:13:49;245.63;;;129.70;;
18267;SDS011;9260;49.998;19.880;2022-07-29T15:23:54;257.40;;;131.93;;
18267;SDS011;9260;49.998;19.880;2022-07-29T15:33:58;237.55;;;124.32;;
18267;SDS011;9260;49.998;19.880;2022-07-29T15:44:08;249.35;;;123.80;;
18267;SDS011;9260;49.998;19.880;2022-07-29T15:54:11;255.15;;;126.22;;
18267;SDS011;9260;49.998;19.880;2022-07-29T16:04:16;251.57;;;122.28;;
18267;SDS011;9260;49.998;19.880;2022-07-29T16:14:21;256.80;;;120.18;;
18267;SDS011;9260;49.998;19.880;2022-07-29T16:24:30;257.33;;;118.80;;
18267;SDS011;9260;49.998;19.880;2022-07-29T16:34:33;253.23;;;115.63;;
18267;SDS011;9260;49.998;19.880;2022-07-29T16:44:38;254.68;;;111.65;;
18267;SDS011;9260;49.998;19.880;2022-07-29T16:54:42;267.10;;;131.23;;
18267;SDS011;9260;49.998;19.880;2022-07-29T17:04:47;247.88;;;107.75;;
18267;SDS011;9260;49.998;19.880;2022-07-29T17:14:50;253.63;;;105.47;;
18267;SDS011;9260;49.998;19.880;2022-07-29T17:24:55;262.90;;;118.07;;
18267;SDS011;9260;49.998;19.880;2022-07-29T17:35:01;256.75;;;101.90;;
18267;SDS011;9260;49.998;19.880;2022-07-29T17:45:26;250.50;;;102.75;;
18267;SDS011;9260;49.998;19.880;2022-07-29T17:55:50;286.73;;;109.97;;
18267;SDS011;9260;49.998;19.880;2022-07-29T18:05:55;272.73;;;110.53;;
18267;SDS011;9260;49.998;19.880;2022-07-29T18:16:01;253.15;;;106.85;;
18267;SDS011;9260;49.998;19.880;2022-07-29T18:26:06;250.63;;;98.53;;
18267;SDS011;9260;49.998;19.880;2022-07-29T18:36:11;255.70;;;100.53;;
18267;SDS011;9260;49.998;19.880;2022-07-29T18:46:16;258.00;;;105.87;;
18267;SDS011;9260;49.998;19.880;2022-07-29T18:56:21;250.67;;;96.17;;
18267;SDS011;9260;49.998;19.880;2022-07-29T19:06:26;248.47;;;96.30;;
18267;SDS011;9260;49.998;19.880;2022-07-29T19:16:30;248.93;;;93.88;;
18267;SDS011;9260;49.998;19.880;2022-07-29T19:26:35;253.27;;;95.97;;
18267;SDS011;9260;49.998;19.880;2022-07-29T19:36:44;242.70;;;93.13;;
18267;SDS011;9260;49.998;19.880;2022-07-29T19:46:49;249.03;;;94.30;;
18267;SDS011;9260;49.998;19.880;2022-07-29T19:56:54;248.37;;;94.53;;
18267;SDS011;9260;49.998;19.880;2022-07-29T20:07:00;249.87;;;92.93;;
18267;SDS011;9260;49.998;19.880;2022-07-29T20:17:04;251.27;;;98.63;;
18267;SDS011;9260;49.998;19.880;2022-07-29T20:27:09;248.50;;;98.90;;
18267;SDS011;9260;49.998;19.880;2022-07-29T20:37:14;244.93;;;94.13;;
18267;SDS011;9260;49.998;19.880;2022-07-29T20:47:22;248.23;;;95.97;;
18267;SDS011;9260;49.998;19.880;2022-07-29T20:57:26;244.47;;;92.23;;
18267;SDS011;9260;49.998;19.880;2022-07-29T21:07:41;249.97;;;96.27;;
18267;SDS011;9260;49.998;19.880;2022-07-29T21:17:44;246.63;;;93.53;;
18267;SDS011;9260;49.998;19.880;2022-07-29T21:27:50;253.10;;;98.63;;
18267;SDS011;9260;49.998;19.880;2022-07-29T21:38:11;272.43;;;144.67;;
18267;SDS011;9260;49.998;19.880;2022-07-29T21:48:18;248.63;;;97.47;;
18267;SDS011;9260;49.998;19.880;2022-07-29T21:58:23;247.20;;;94.33;;
18267;SDS011;9260;49.998;19.880;2022-07-29T22:08:28;246.90;;;92.60;;
18267;SDS011;9260;49.998;19.880;2022-07-29T22:18:31;249.27;;;96.87;;
18267;SDS011;9260;49.998;19.880;2022-07-29T22:28:36;245.20;;;95.90;;
18267;SDS011;9260;49.998;19.880;2022-07-29T22:38:40;250.43;;;95.80;;
18267;SDS011;9260;49.998;19.880;2022-07-29T22:48:46;250.97;;;94.60;;
18267;SDS011;9260;49.998;19.880;2022-07-29T22:58:49;252.73;;;95.33;;
18267;SDS011;9260;49.998;19.880;2022-07-29T23:08:57;252.43;;;95.43;;
18267;SDS011;9260;49.998;19.880;2022-07-29T23:19:00;247.80;;;95.27;;
18267;SDS011;9260;49.998;19.880;2022-07-29T23:29:05;252.10;;;93.90;;
18267;SDS011;9260;49.998;19.880;2022-07-29T23:39:09;250.30;;;92.57;;
18267;SDS011;9260;49.998;19.880;2022-07-29T23:49:15;252.30;;;93.23;;
18267;SDS011;9260;49.998;19.880;2022-07-29T23:59:18;250.83;;;92.83;;
